Time;durP1;ratioP1;P1;durP2;ratioP2;P2;SDS_P1;SDS_P2;PMS_P1;PMS_P2;Temp;Humidity;BMP_temperature;BMP_pressure;BME280_temperature;BME280_humidity;BME280_pressure;Samples;Min_cycle;Max_cycle;Signal;HPM_P1;HPM_P2
2021/01/05 00:03:29;;;;;;;27.33;13.05;;;1.20;99.90;;;;;;12337059;28;20074;-83
2021/01/05 00:09:30;;;;;;;27.25;13.18;;;1.20;99.90;;;;;;12341386;28;20083;-83
2021/01/05 00:15:32;;;;;;;27.33;12.73;;;1.20;99.90;;;;;;12346935;28;20114;-84
2021/01/05 00:21:33;;;;;;;28.35;13.63;;;1.20;99.90;;;;;;12358138;28;20038;-83
2021/01/05 00:27:35;;;;;;;27.35;13.90;;;1.20;99.90;;;;;;12328398;28;20043;-83
2021/01/05 00:33:36;;;;;;;29.17;14.00;;;1.20;99.90;;;;;;12342143;28;20057;-84
2021/01/05 00:39:38;;;;;;;31.38;13.50;;;1.20;99.90;;;;;;12342511;28;20042;-83
2021/01/05 00:45:40;;;;;;;31.52;15.85;;;1.20;99.90;;;;;;12344776;28;20219;-83
2021/01/05 00:51:42;;;;;;;29.90;15.27;;;1.20;99.90;;;;;;12330835;28;20471;-85
2021/01/05 00:57:43;;;;;;;32.63;14.90;;;1.20;99.90;;;;;;12329435;28;20145;-83
2021/01/05 01:03:45;;;;;;;34.67;15.35;;;1.20;99.90;;;;;;12327169;28;20075;-83
2021/01/05 01:09:46;;;;;;;35.95;16.10;;;1.20;99.90;;;;;;12310330;28;20097;-83
2021/01/05 01:15:47;;;;;;;39.97;16.25;;;1.20;99.90;;;;;;12276665;28;21531;-85
2021/01/05 01:21:51;;;;;;;42.40;15.93;;;1.20;99.90;;;;;;12284233;28;20166;-83
2021/01/05 01:27:53;;;;;;;48.22;17.77;;;1.20;99.90;;;;;;12306996;28;20086;-84
2021/01/05 01:33:54;;;;;;;43.10;16.85;;;1.20;99.90;;;;;;12312103;28;20050;-84
2021/01/05 01:39:55;;;;;;;44.25;16.70;;;1.20;99.90;;;;;;12300008;28;20094;-83
2021/01/05 01:45:57;;;;;;;41.10;15.95;;;1.10;99.90;;;;;;12291755;28;20492;-83
2021/01/05 01:51:59;;;;;;;40.22;15.55;;;1.10;99.90;;;;;;12295711;28;20061;-85
2021/01/05 01:58:06;;;;;;;38.95;15.20;;;1.10;99.90;;;;;;12303903;28;20051;-85
2021/01/05 02:04:46;;;;;;;37.67;14.60;;;1.10;99.90;;;;;;12289440;28;20114;-85
2021/01/05 02:11:00;;;;;;;40.40;16.42;;;1.10;99.90;;;;;;12320643;28;20505;-84
2021/01/05 02:17:52;;;;;;;44.10;17.88;;;1.10;99.90;;;;;;12338645;28;20096;-83
2021/01/05 02:24:14;;;;;;;47.55;16.85;;;1.10;99.90;;;;;;12322086;28;20086;-85
2021/01/05 02:30:21;;;;;;;40.25;16.48;;;1.20;99.90;;;;;;12307177;28;20142;-83
2021/01/05 02:36:34;;;;;;;45.97;18.35;;;1.10;99.90;;;;;;12301466;28;20146;-83
2021/01/05 02:42:59;;;;;;;40.10;17.17;;;1.20;99.90;;;;;;12326958;28;20054;-84
2021/01/05 02:49:03;;;;;;;39.33;16.52;;;1.10;99.90;;;;;;12347528;28;20054;-84
2021/01/05 02:55:40;;;;;;;40.93;17.07;;;1.10;99.90;;;;;;12349520;28;20142;-84
2021/01/05 03:02:19;;;;;;;42.08;16.65;;;1.10;99.90;;;;;;12348462;28;20186;-83
2021/01/05 03:08:27;;;;;;;39.80;17.15;;;1.10;99.90;;;;;;12342680;28;20837;-84
2021/01/05 03:14:51;;;;;;;45.65;16.27;;;1.20;99.90;;;;;;12312542;28;20582;-83
2021/01/05 03:21:08;;;;;;;38.30;15.88;;;1.20;99.90;;;;;;12320406;28;20515;-84
2021/01/05 03:27:10;;;;;;;34.70;14.82;;;1.20;99.90;;;;;;12313606;28;20071;-83
2021/01/05 03:33:12;;;;;;;32.47;14.40;;;1.20;99.90;;;;;;12332084;28;20478;-83
2021/01/05 03:39:14;;;;;;;32.38;14.38;;;1.20;99.90;;;;;;12323569;28;20051;-83
2021/01/05 03:45:34;;;;;;;36.30;14.77;;;1.20;99.90;;;;;;12318047;28;20142;-84
2021/01/05 03:51:35;;;;;;;37.28;14.95;;;1.20;99.90;;;;;;12341478;28;20149;-83
2021/01/05 03:57:36;;;;;;;38.95;15.10;;;1.20;99.90;;;;;;12329787;28;20047;-83
2021/01/05 04:03:39;;;;;;;36.92;14.50;;;1.10;99.90;;;;;;12323641;28;20130;-83
2021/01/05 04:09:41;;;;;;;36.55;15.13;;;1.10;99.90;;;;;;12334096;28;20122;-85
2021/01/05 04:15:42;;;;;;;38.22;15.07;;;1.20;99.90;;;;;;12323844;28;20082;-83
2021/01/05 04:21:47;;;;;;;44.80;15.63;;;1.20;99.90;;;;;;12348046;28;20043;-84
2021/01/05 04:27:50;;;;;;;42.65;15.07;;;1.20;99.90;;;;;;12337251;28;20519;-84
2021/01/05 04:33:51;;;;;;;40.83;14.77;;;1.10;99.90;;;;;;12332785;28;21453;-83
2021/01/05 04:39:52;;;;;;;41.75;15.88;;;1.20;99.90;;;;;;12349148;28;20463;-84
2021/01/05 04:46:15;;;;;;;41.80;17.10;;;1.20;99.90;;;;;;12329993;28;20104;-83
2021/01/05 04:52:23;;;;;;;43.78;16.27;;;1.20;99.90;;;;;;12341786;28;20054;-84
2021/01/05 04:58:35;;;;;;;43.55;15.90;;;1.20;99.90;;;;;;12361538;28;20086;-85
2021/01/05 05:04:42;;;;;;;43.50;15.55;;;1.20;99.90;;;;;;12358597;28;20081;-83
2021/01/05 05:11:03;;;;;;;47.75;16.85;;;1.20;99.90;;;;;;12350052;28;20121;-83
2021/01/05 05:17:27;;;;;;;43.10;16.90;;;1.20;99.90;;;;;;12345007;28;20121;-84
2021/01/05 05:23:40;;;;;;;48.80;17.00;;;1.20;99.90;;;;;;12363914;28;20046;-83
2021/01/05 05:29:58;;;;;;;41.42;17.25;;;1.20;99.90;;;;;;12368301;28;20136;-84
2021/01/05 05:36:32;;;;;;;46.85;16.90;;;1.20;99.90;;;;;;12357848;28;20079;-84
2021/01/05 05:42:45;;;;;;;42.50;15.45;;;1.10;99.90;;;;;;12318913;28;20129;-83
2021/01/05 05:49:04;;;;;;;42.75;16.05;;;1.20;99.90;;;;;;12363985;28;20047;-84
2021/01/05 05:55:36;;;;;;;42.00;16.80;;;1.20;99.90;;;;;;12356658;28;20489;-84
2021/01/05 06:01:39;;;;;;;47.58;17.10;;;1.20;99.90;;;;;;12354889;28;20070;-82
2021/01/05 06:07:41;;;;;;;46.53;17.30;;;1.20;99.90;;;;;;12349350;28;20080;-84
2021/01/05 06:13:42;;;;;;;54.88;18.58;;;1.30;99.90;;;;;;12339245;28;20138;-85
2021/01/05 06:19:43;;;;;;;46.72;18.33;;;1.20;99.90;;;;;;12360685;28;20100;-83
2021/01/05 06:25:47;;;;;;;47.60;18.50;;;1.10;99.90;;;;;;12368263;28;20069;-83
2021/01/05 06:31:49;;;;;;;48.30;18.97;;;1.20;99.90;;;;;;12313472;28;20585;-83
2021/01/05 06:37:51;;;;;;;54.53;18.98;;;1.20;99.90;;;;;;12346257;28;20773;-84
2021/01/05 06:43:53;;;;;;;52.78;19.27;;;1.20;99.90;;;;;;12347337;28;20053;-85
2021/01/05 06:49:54;;;;;;;51.65;19.05;;;1.20;99.90;;;;;;12347206;28;20050;-83
2021/01/05 06:55:56;;;;;;;49.53;18.40;;;1.20;99.90;;;;;;12349753;28;20050;-84
2021/01/05 07:02:05;;;;;;;53.88;19.23;;;1.10;99.90;;;;;;12342433;28;20047;-83
2021/01/05 07:08:07;;;;;;;50.30;19.20;;;1.10;99.90;;;;;;12321863;28;20050;-85
2021/01/05 07:14:08;;;;;;;42.03;16.27;;;1.20;99.90;;;;;;12323705;28;20337;-83
2021/01/05 07:20:11;;;;;;;50.42;19.10;;;1.20;99.90;;;;;;12342961;28;20110;-83
2021/01/05 07:26:13;;;;;;;43.50;18.75;;;1.20;99.90;;;;;;12340320;28;20735;-83
2021/01/05 07:32:14;;;;;;;46.85;19.00;;;1.20;99.90;;;;;;12320484;28;20213;-84
2021/01/05 07:38:15;;;;;;;45.05;19.52;;;1.20;99.90;;;;;;12329482;28;20113;-82
2021/01/05 07:44:17;;;;;;;52.35;19.15;;;1.20;99.90;;;;;;12339046;28;20542;-83
2021/01/05 07:50:22;;;;;;;43.05;18.60;;;1.20;99.90;;;;;;12338286;28;20451;-82
2021/01/05 07:56:23;;;;;;;51.10;19.42;;;1.20;99.90;;;;;;12345359;28;20141;-84
2021/01/05 08:02:24;;;;;;;46.58;19.13;;;1.20;99.90;;;;;;12347614;28;21889;-82
2021/01/05 08:08:26;;;;;;;49.67;19.23;;;1.20;99.90;;;;;;12321665;28;20206;-83
2021/01/05 08:14:27;;;;;;;49.70;19.27;;;1.20;99.90;;;;;;12325429;28;20421;-83
2021/01/05 08:20:31;;;;;;;50.05;18.83;;;1.20;99.90;;;;;;12327883;28;20062;-83
2021/01/05 08:26:32;;;;;;;54.65;20.42;;;1.20;99.90;;;;;;12343888;28;20091;-83
2021/01/05 08:32:34;;;;;;;61.63;22.38;;;1.20;99.90;;;;;;12346051;28;20051;-82
2021/01/05 08:38:35;;;;;;;59.83;22.95;;;1.20;99.90;;;;;;12328734;28;20486;-82
2021/01/05 08:44:36;;;;;;;65.50;22.80;;;1.20;99.90;;;;;;12313633;28;20073;-82
2021/01/05 08:50:38;;;;;;;57.90;22.20;;;1.30;99.90;;;;;;12334789;28;20152;-82
2021/01/05 08:56:39;;;;;;;55.85;21.80;;;1.20;99.90;;;;;;12351346;28;20141;-82
2021/01/05 09:02:41;;;;;;;64.05;21.35;;;1.30;99.90;;;;;;12324431;28;20130;-84
2021/01/05 09:08:42;;;;;;;55.97;20.20;;;1.30;99.90;;;;;;12289893;28;20146;-82
2021/01/05 09:14:43;;;;;;;50.70;19.70;;;1.30;99.90;;;;;;12301688;28;20100;-83
2021/01/05 09:20:44;;;;;;;52.35;19.48;;;1.30;99.90;;;;;;12307834;28;20555;-84
2021/01/05 09:26:54;;;;;;;51.15;17.65;;;1.40;99.90;;;;;;12296888;28;20139;-82
2021/01/05 09:32:55;;;;;;;39.53;16.30;;;1.40;99.90;;;;;;12283205;28;20073;-83
2021/01/05 09:38:57;;;;;;;40.95;14.98;;;1.30;99.90;;;;;;12303614;28;20158;-82
2021/01/05 09:44:59;;;;;;;43.10;15.07;;;1.40;99.90;;;;;;12306590;28;20142;-83
2021/01/05 09:51:00;;;;;;;40.30;14.88;;;1.40;99.90;;;;;;12294648;28;20047;-83
2021/01/05 09:57:02;;;;;;;37.38;14.43;;;1.40;99.90;;;;;;12296598;28;20126;-82
2021/01/05 10:03:03;;;;;;;41.50;16.50;;;1.40;99.90;;;;;;12282813;28;20078;-82
2021/01/05 10:09:09;;;;;;;47.33;18.65;;;1.50;99.90;;;;;;12309358;28;20139;-82
2021/01/05 10:15:12;;;;;;;49.40;18.05;;;1.40;99.90;;;;;;12294221;28;20065;-83
2021/01/05 10:21:14;;;;;;;45.40;17.25;;;1.50;99.90;;;;;;12279560;28;20051;-82
2021/01/05 10:27:15;;;;;;;53.03;17.80;;;1.50;99.90;;;;;;12303142;28;20046;-82
2021/01/05 10:33:16;;;;;;;40.05;18.77;;;1.50;99.90;;;;;;12282705;28;20523;-83
2021/01/05 10:39:18;;;;;;;41.75;17.05;;;1.60;99.90;;;;;;12291783;28;20078;-83
2021/01/05 10:45:21;;;;;;;45.83;17.05;;;1.60;99.90;;;;;;12282994;28;20061;-82
2021/01/05 10:51:24;;;;;;;54.83;17.97;;;1.60;99.90;;;;;;12292230;28;20039;-82
2021/01/05 10:57:25;;;;;;;39.95;15.15;;;1.60;99.90;;;;;;12287704;28;20072;-82
2021/01/05 11:03:26;;;;;;;44.80;15.75;;;1.60;99.90;;;;;;12269113;28;20050;-82
2021/01/05 11:09:29;;;;;;;46.33;17.60;;;1.70;99.90;;;;;;12289524;28;20045;-82
2021/01/05 11:15:30;;;;;;;39.80;17.88;;;1.80;99.90;;;;;;12300409;28;20082;-82
2021/01/05 11:21:31;;;;;;;40.00;16.90;;;1.80;99.90;;;;;;12293123;28;20395;-82
2021/01/05 11:27:33;;;;;;;35.90;16.13;;;1.80;99.90;;;;;;12295007;28;20066;-83
2021/01/05 11:33:34;;;;;;;33.63;15.20;;;1.80;99.90;;;;;;12303731;28;20050;-84
2021/01/05 11:39:38;;;;;;;31.30;13.60;;;1.90;99.90;;;;;;12306011;28;20057;-83
2021/01/05 11:45:39;;;;;;;27.65;13.45;;;1.80;99.90;;;;;;12302630;28;20054;-82
2021/01/05 11:51:41;;;;;;;34.00;15.20;;;1.90;99.90;;;;;;12307978;28;20053;-83
2021/01/05 11:57:45;;;;;;;29.00;15.18;;;1.80;99.90;;;;;;12307424;28;20060;-83
2021/01/05 12:03:46;;;;;;;28.80;12.90;;;1.80;99.90;;;;;;12308125;28;20062;-83
2021/01/05 12:09:48;;;;;;;26.88;12.88;;;1.80;99.90;;;;;;12296270;28;20378;-83
2021/01/05 12:15:49;;;;;;;30.15;13.88;;;1.80;99.90;;;;;;12315979;28;20051;-82
2021/01/05 12:21:55;;;;;;;28.95;13.10;;;1.70;99.90;;;;;;12314305;28;20097;-82
2021/01/05 12:27:56;;;;;;;30.02;13.10;;;1.80;99.90;;;;;;12331189;28;20138;-83
2021/01/05 12:34:07;;;;;;;29.15;12.90;;;1.90;99.90;;;;;;12352634;28;20062;-83
2021/01/05 12:40:09;;;;;;;30.67;14.00;;;1.80;99.90;;;;;;12353842;28;20142;-83
2021/01/05 12:46:11;;;;;;;31.33;14.27;;;1.80;99.90;;;;;;12327053;28;20141;-82
2021/01/05 12:52:12;;;;;;;28.42;13.52;;;1.80;99.90;;;;;;12341939;28;20050;-83
2021/01/05 12:58:13;;;;;;;31.85;14.65;;;1.80;99.90;;;;;;12299800;28;20485;-82
2021/01/05 13:04:15;;;;;;;36.25;15.40;;;1.80;99.90;;;;;;12325737;28;20080;-82
2021/01/05 13:10:16;;;;;;;39.88;16.45;;;1.80;99.90;;;;;;12345295;28;20054;-84
2021/01/05 13:16:32;;;;;;;36.85;17.17;;;1.80;99.90;;;;;;12307621;28;20106;-83
2021/01/05 13:22:34;;;;;;;38.83;16.35;;;1.80;99.90;;;;;;12311156;28;20039;-83
2021/01/05 13:28:35;;;;;;;40.95;16.45;;;1.90;99.90;;;;;;12305998;28;20050;-83
2021/01/05 13:34:43;;;;;;;41.35;17.70;;;1.90;99.90;;;;;;12298167;28;20082;-81
2021/01/05 13:40:44;;;;;;;38.53;17.30;;;1.90;99.90;;;;;;12303391;28;20142;-82
2021/01/05 13:46:45;;;;;;;33.05;16.83;;;2.00;99.90;;;;;;12307810;28;20155;-85
2021/01/05 13:52:48;;;;;;;32.28;17.23;;;2.00;99.90;;;;;;12326367;28;20805;-83
2021/01/05 13:58:50;;;;;;;33.92;16.95;;;1.90;99.90;;;;;;12313341;28;20085;-83
2021/01/05 14:04:52;;;;;;;30.17;15.68;;;2.00;99.90;;;;;;12324871;28;20038;-82
2021/01/05 14:10:54;;;;;;;27.92;15.45;;;2.00;99.90;;;;;;12301324;28;20043;-83
2021/01/05 14:16:56;;;;;;;28.25;14.50;;;2.00;99.90;;;;;;12317222;28;20059;-83
2021/01/05 14:22:58;;;;;;;27.35;15.13;;;2.00;99.90;;;;;;12308562;28;20133;-82
2021/01/05 14:28:59;;;;;;;23.48;13.98;;;2.00;99.90;;;;;;12312435;28;20062;-84
2021/01/05 14:35:00;;;;;;;25.77;14.15;;;2.00;99.90;;;;;;12311662;28;20047;-83
2021/01/05 14:41:02;;;;;;;24.02;13.98;;;2.10;99.90;;;;;;12299742;28;20436;-83
2021/01/05 14:47:07;;;;;;;23.85;13.73;;;2.00;99.90;;;;;;12299490;28;20126;-84
2021/01/05 14:53:08;;;;;;;25.70;13.18;;;2.10;99.90;;;;;;12302109;28;20093;-84
2021/01/05 14:59:10;;;;;;;23.08;13.05;;;1.90;99.90;;;;;;12317420;28;20146;-84
2021/01/05 15:05:12;;;;;;;20.83;11.35;;;1.90;99.90;;;;;;12334697;28;20042;-84
2021/01/05 15:11:20;;;;;;;21.45;11.60;;;2.00;99.90;;;;;;12309775;28;20050;-84
2021/01/05 15:17:21;;;;;;;18.83;11.40;;;2.00;99.90;;;;;;12309266;28;20564;-84
2021/01/05 15:23:22;;;;;;;20.05;11.25;;;2.00;99.90;;;;;;12299728;28;20569;-85
2021/01/05 15:29:24;;;;;;;20.00;11.07;;;2.00;99.90;;;;;;12309404;28;20542;-84
2021/01/05 15:35:25;;;;;;;20.33;10.75;;;2.00;99.90;;;;;;12299834;28;20051;-85
2021/01/05 15:41:26;;;;;;;23.15;11.85;;;2.00;99.90;;;;;;12303511;28;20050;-84
2021/01/05 15:47:28;;;;;;;24.38;12.02;;;2.10;99.90;;;;;;12332855;28;20579;-86
2021/01/05 15:53:29;;;;;;;28.35;13.07;;;2.10;99.90;;;;;;12329792;28;20078;-85
2021/01/05 15:59:30;;;;;;;23.25;11.45;;;2.10;99.90;;;;;;12352205;28;20077;-84
2021/01/05 16:05:32;;;;;;;30.38;12.98;;;2.10;99.90;;;;;;12349402;28;20067;-85
2021/01/05 16:11:35;;;;;;;29.75;13.27;;;2.10;99.90;;;;;;12318317;28;20127;-84
2021/01/05 16:17:36;;;;;;;30.77;12.48;;;2.20;99.90;;;;;;12364039;28;20141;-84
2021/01/05 16:23:38;;;;;;;31.75;13.23;;;2.20;99.90;;;;;;12339997;28;20142;-84
2021/01/05 16:29:39;;;;;;;31.33;12.23;;;2.30;99.90;;;;;;12353226;28;20503;-85
2021/01/05 16:35:40;;;;;;;35.97;12.45;;;2.30;99.90;;;;;;12326623;28;20224;-84
2021/01/05 16:41:42;;;;;;;36.22;12.07;;;2.30;99.90;;;;;;12332193;28;20056;-85
2021/01/05 16:47:43;;;;;;;40.72;12.80;;;2.40;99.90;;;;;;12348254;28;20054;-85
2021/01/05 16:53:44;;;;;;;30.90;11.88;;;2.40;99.90;;;;;;12339268;28;20204;-84
2021/01/05 16:59:46;;;;;;;48.20;13.27;;;2.40;99.90;;;;;;12341247;28;20145;-86
2021/01/05 17:05:50;;;;;;;32.83;11.43;;;2.40;99.90;;;;;;12334547;28;20062;-86
2021/01/05 17:11:52;;;;;;;28.40;10.02;;;2.40;99.90;;;;;;12344472;28;20495;-86
2021/01/05 17:17:54;;;;;;;25.17;9.82;;;2.50;99.90;;;;;;12362551;28;20058;-86
2021/01/05 17:23:57;;;;;;;28.13;10.38;;;2.40;99.90;;;;;;12341960;28;20137;-86
2021/01/05 17:29:58;;;;;;;30.60;10.52;;;2.50;99.90;;;;;;12340950;28;20046;-84
2021/01/05 17:36:00;;;;;;;38.28;11.52;;;2.50;99.90;;;;;;12325553;28;20129;-86
2021/01/05 17:42:02;;;;;;;33.58;11.75;;;2.50;99.90;;;;;;12353951;28;20042;-86
2021/01/05 17:48:07;;;;;;;35.28;11.63;;;2.50;99.90;;;;;;12347958;28;20209;-87
2021/01/05 17:54:09;;;;;;;29.27;11.68;;;2.60;99.90;;;;;;12345063;28;20646;-85
2021/01/05 18:00:12;;;;;;;24.02;11.02;;;2.60;99.90;;;;;;12344820;28;20782;-85
2021/01/05 18:06:13;;;;;;;37.97;12.10;;;2.60;99.90;;;;;;12342993;28;20160;-86
2021/01/05 18:12:15;;;;;;;26.88;9.98;;;2.60;99.90;;;;;;12339720;28;20065;-85
2021/01/05 18:18:16;;;;;;;26.67;9.40;;;2.70;99.90;;;;;;12316966;28;20075;-85
2021/01/05 18:24:18;;;;;;;32.92;9.88;;;2.70;99.90;;;;;;12323195;28;20042;-84
2021/01/05 18:30:22;;;;;;;23.63;9.55;;;2.70;99.90;;;;;;12330675;28;20477;-83
2021/01/05 18:36:23;;;;;;;19.67;9.20;;;2.70;99.90;;;;;;12352677;28;20185;-83
2021/01/05 18:42:24;;;;;;;18.63;8.68;;;2.70;99.90;;;;;;12341445;28;20062;-83
2021/01/05 18:48:30;;;;;;;23.98;9.55;;;2.70;99.90;;;;;;12340464;28;20042;-85
2021/01/05 18:54:31;;;;;;;20.17;8.88;;;2.70;99.90;;;;;;12332177;28;20391;-86
2021/01/05 19:00:35;;;;;;;29.42;10.02;;;2.80;99.90;;;;;;12341851;28;20149;-86
2021/01/05 19:06:37;;;;;;;21.40;9.15;;;2.80;99.90;;;;;;12327398;28;20066;-87
2021/01/05 19:12:39;;;;;;;23.98;9.20;;;2.80;99.90;;;;;;12344291;28;20133;-86
2021/01/05 19:18:41;;;;;;;15.52;7.68;;;2.70;99.90;;;;;;12358885;28;20916;-86
2021/01/05 19:24:44;;;;;;;16.10;7.55;;;2.70;99.90;;;;;;12327371;28;20062;-85
2021/01/05 19:30:46;;;;;;;18.52;7.38;;;2.70;99.90;;;;;;12356562;28;20517;-85
2021/01/05 19:36:47;;;;;;;11.88;6.63;;;2.70;99.90;;;;;;12333154;28;20075;-86
2021/01/05 19:42:49;;;;;;;13.23;6.88;;;2.70;99.90;;;;;;12322605;28;20149;-86
2021/01/05 19:48:51;;;;;;;17.38;6.70;;;2.70;99.90;;;;;;12337340;28;20046;-86
2021/01/05 19:54:52;;;;;;;13.77;6.47;;;2.70;99.90;;;;;;12327578;28;21451;-86
2021/01/05 20:00:55;;;;;;;12.18;6.38;;;2.70;99.90;;;;;;12352924;28;20042;-86
2021/01/05 20:06:56;;;;;;;12.82;6.40;;;2.70;99.90;;;;;;12337491;28;20057;-86
2021/01/05 20:12:58;;;;;;;12.18;6.55;;;2.70;99.90;;;;;;12325444;28;20537;-86
2021/01/05 20:19:00;;;;;;;15.02;7.20;;;2.70;99.90;;;;;;12340076;28;20050;-85
2021/01/05 20:25:02;;;;;;;16.92;7.95;;;2.70;99.90;;;;;;12328091;28;20106;-88
2021/01/05 20:31:05;;;;;;;18.88;7.95;;;2.80;99.90;;;;;;12319521;28;20069;-85
2021/01/05 20:37:07;;;;;;;19.67;9.05;;;2.80;99.90;;;;;;12328473;28;20074;-86
2021/01/05 20:43:08;;;;;;;23.23;9.63;;;2.70;99.90;;;;;;12337685;28;20146;-88
2021/01/05 20:49:11;;;;;;;21.27;9.15;;;2.80;99.90;;;;;;12335247;28;23111;-86
2021/01/05 20:55:14;;;;;;;20.60;9.40;;;2.80;99.90;;;;;;12324487;28;20071;-86
2021/01/05 21:01:15;;;;;;;18.98;9.65;;;2.80;99.90;;;;;;12365088;28;20196;-86
2021/01/05 21:07:17;;;;;;;24.60;9.77;;;2.80;99.90;;;;;;12332521;28;20498;-86
2021/01/05 21:13:18;;;;;;;16.90;8.88;;;2.80;99.90;;;;;;12326377;28;20077;-85
2021/01/05 21:19:20;;;;;;;18.02;8.25;;;2.80;99.90;;;;;;12355319;28;20574;-85
2021/01/05 21:25:24;;;;;;;25.98;9.38;;;2.80;99.90;;;;;;12340743;28;20380;-86
2021/01/05 21:31:26;;;;;;;16.73;8.48;;;2.80;99.90;;;;;;12335900;28;20089;-86
2021/01/05 21:37:28;;;;;;;19.38;8.95;;;2.80;99.90;;;;;;12333575;28;20053;-86
2021/01/05 21:43:29;;;;;;;13.50;7.40;;;2.80;99.90;;;;;;12321317;28;20145;-87
2021/01/05 21:49:30;;;;;;;15.40;7.68;;;2.80;99.90;;;;;;12347643;28;20145;-86
2021/01/05 21:55:33;;;;;;;12.55;7.20;;;2.80;99.90;;;;;;12333094;28;20066;-86
2021/01/05 22:01:37;;;;;;;15.65;7.20;;;2.80;99.90;;;;;;12339601;28;20106;-86
2021/01/05 22:07:38;;;;;;;10.65;6.25;;;2.70;99.90;;;;;;12333845;28;20069;-86
2021/01/05 22:13:40;;;;;;;14.60;7.63;;;2.70;99.90;;;;;;12305494;28;20049;-86
2021/01/05 22:19:41;;;;;;;12.82;6.28;;;2.70;99.90;;;;;;12331776;28;20093;-86
2021/01/05 22:25:43;;;;;;;13.05;6.82;;;2.70;99.90;;;;;;12281515;28;20518;-86
2021/01/05 22:31:44;;;;;;;13.27;6.68;;;2.70;99.90;;;;;;12292046;28;20047;-85
2021/01/05 22:37:46;;;;;;;14.80;7.70;;;2.70;99.90;;;;;;12309821;28;20519;-85
2021/01/05 22:43:47;;;;;;;14.52;7.35;;;2.70;99.90;;;;;;12283235;28;20181;-86
2021/01/05 22:49:49;;;;;;;14.20;8.10;;;2.70;99.90;;;;;;12300081;28;20078;-85
2021/01/05 22:55:51;;;;;;;21.15;9.15;;;2.70;99.90;;;;;;12312716;28;20133;-85
2021/01/05 23:01:53;;;;;;;20.00;9.27;;;2.70;99.90;;;;;;12311585;28;20511;-86
2021/01/05 23:07:55;;;;;;;22.10;9.85;;;2.70;99.90;;;;;;12269277;28;20261;-86
2021/01/05 23:13:57;;;;;;;19.00;9.77;;;2.70;99.90;;;;;;12284250;28;20132;-85
2021/01/05 23:19:59;;;;;;;21.17;8.82;;;2.70;99.90;;;;;;12299847;28;20496;-86
2021/01/05 23:26:00;;;;;;;17.27;8.73;;;2.70;99.90;;;;;;12287195;28;20280;-86
2021/01/05 23:32:02;;;;;;;21.98;9.10;;;2.70;99.90;;;;;;12297513;28;20137;-85
2021/01/05 23:38:04;;;;;;;15.52;8.73;;;2.60;99.90;;;;;;12293568;28;20077;-85
2021/01/05 23:44:06;;;;;;;21.27;9.55;;;2.60;99.90;;;;;;12300017;28;20487;-86
2021/01/05 23:50:07;;;;;;;20.60;10.13;;;2.60;99.90;;;;;;12280648;28;20051;-87
2021/01/05 23:56:10;;;;;;;17.23;9.43;;;2.60;99.90;;;;;;12290974;28;20085;-86
